Terminal Aerodrome Forecast
Issued by NWS

Home | Current Version | Previous Version | Text Only | Print | Product List | Glossary On
Versions: 1 2 3 4 5 6 7 8 9 10 11 12 13 14
911
FTUS43 KEAX 200520
TAFSTJ
TAF
KSTJ 200520Z 2006/2106 16007KT P6SM BKN200
     FM201000 17009KT 5SM -SHRA BR OVC025
     FM201500 18010KT P6SM VCSH OVC015
     FM201800 20012KT P6SM OVC040
     FM210100 26007KT P6SM SCT150=

USA.gov is the U.S. government's official web portal to all federal, state and local government web resources and services.